Pagrindinis puslapis
METAR-TAF:

METAR-TAF

Oro uostai :

Džeksonvilis, Florida, Jungtinės Amerikos Valstijos

platuma: 30-29-40N, ilguma: 081-41-36W, Aukštis: 9 m

Dabartinis oras

Ataskaita buvo paskelbta 49 minutes, ne 07:56 UTC
Vėjas 11 kt iš Šiaurės Vakarų
Temperatūra 9°C
Drėgmė 61%
Slėgis 1017 hPa
Matomumas: 16.1 km
Su prošvaistėmis ne aukštis 20000 ft
Apsiniaukę ne aukštis 25000 ft

METAR: KJAX 270756Z 31011KT 10SM BKN200 OVC250 09/02 A3004 RMK AO2 SLP172 T00940022 $

Laikas: 03:45 (08:45 UTC)

Prognozė

Ataskaita buvo paskelbta 3 valandos ir 25 minutes, ne 05:20 UTC
Prognozė galioja nuo 27 metu 06 UTC su 28 metu 06 UTC
Vėjas 12 kt iš Šiaurės Vakarų su gūsio iki 18 kt
Matomumas: 10 km
Išsisklaidę debesys ne aukštis 15000 ft
Su prošvaistėmis ne aukštis 25000 ft
Nuo 27 metu 2300 UTC
Vėjas 4 kt iš Šiaurės Vakarų
Matomumas: 10 km
Giedras dangus

TAF: KJAX 270520Z 2706/2806 31012G18KT P6SM SCT150 BKN250 FM272300 31004KT P6SM SKC

Orai ataskaitas ir orų prognozės (METAR, TAF).

turimą stotys yra geltonos ir raudonos taškus žemėlapyje.

Perkelti pele per norėdami pamatyti stoties vardą.

Tada spustelėkite, norėdami matyti oro stebėjimo ir prognozės.

Norėdami pakeisti žemėlapį: spustelėkite ant žalios mygtukų su juodo kryžiaus žemyn,; žalią mygtuką su brūkšneliu, jei norite nutolinti; arba žalių rodyklių gretimoms žemėlapius.


METAR-TAF: